createdAt,value
2018-04-24T00:00:46.076Z,3.70
2018-04-24T00:03:13.484Z,4.07
2018-04-24T00:05:40.915Z,4.30
2018-04-24T00:08:08.312Z,3.50
2018-04-24T00:10:35.719Z,3.53
2018-04-24T00:13:03.144Z,4.43
2018-04-24T00:15:30.564Z,4.67
2018-04-24T00:17:57.976Z,4.80
2018-04-24T00:20:25.406Z,5.67
2018-04-24T00:22:52.814Z,6.20
2018-04-24T00:25:20.229Z,6.27
2018-04-24T00:27:47.642Z,5.87
2018-04-24T00:30:15.081Z,5.60
2018-04-24T00:32:42.523Z,5.57
2018-04-24T00:35:09.939Z,5.23
2018-04-24T00:37:37.343Z,6.33
2018-04-24T00:40:04.770Z,7.30
2018-04-24T00:42:32.184Z,7.87
2018-04-24T00:44:59.640Z,7.47
2018-04-24T00:47:27.080Z,8.63
2018-04-24T00:49:54.795Z,7.20
2018-04-24T00:52:22.195Z,7.13
2018-04-24T00:54:49.602Z,7.30
2018-04-24T00:57:17.020Z,6.97
2018-04-24T00:59:44.432Z,7.03
2018-04-24T01:02:11.866Z,7.37
2018-04-24T01:04:39.272Z,7.10
2018-04-24T01:07:06.972Z,7.53
2018-04-24T01:09:34.372Z,7.70
2018-04-24T01:12:01.787Z,7.77
2018-04-24T01:14:29.207Z,8.23
2018-04-24T01:16:56.619Z,8.60
2018-04-24T01:19:24.067Z,8.50
2018-04-24T01:21:51.476Z,7.60
2018-04-24T01:24:18.916Z,9.10
2018-04-24T01:26:46.332Z,8.27
2018-04-24T01:29:13.756Z,8.20
2018-04-24T01:31:41.174Z,7.60
2018-04-24T01:34:08.621Z,8.30
2018-04-24T01:36:36.028Z,8.20
2018-04-24T01:39:03.432Z,8.97
2018-04-24T01:41:30.860Z,8.90
2018-04-24T01:43:58.270Z,9.57
2018-04-24T01:46:25.756Z,10.30
2018-04-24T01:48:53.169Z,9.23
2018-04-24T01:51:20.590Z,11.17
2018-04-24T01:53:48.039Z,9.77
2018-04-24T01:56:15.463Z,10.43
2018-04-24T01:58:42.896Z,10.60
2018-04-24T02:01:10.326Z,12.10
2018-04-24T02:03:37.963Z,10.30
2018-04-24T02:06:05.369Z,12.13
2018-04-24T02:08:32.783Z,12.03
2018-04-24T02:11:00.207Z,12.23
2018-04-24T02:13:27.611Z,12.47
2018-04-24T02:15:55.217Z,12.70
2018-04-24T02:18:22.635Z,12.47
2018-04-24T02:20:50.039Z,12.37
2018-04-24T02:23:17.476Z,13.40
2018-04-24T02:25:44.883Z,14.00
2018-04-24T02:28:12.307Z,13.20
2018-04-24T02:30:39.720Z,14.97
2018-04-24T02:33:07.155Z,13.93
2018-04-24T02:35:34.662Z,14.97
2018-04-24T02:38:01.995Z,16.90
2018-04-24T02:40:29.523Z,17.63
2018-04-24T02:42:56.840Z,18.10
2018-04-24T02:45:24.432Z,19.60
2018-04-24T02:47:51.851Z,19.20
2018-04-24T02:50:19.259Z,19.57
2018-04-24T02:52:46.694Z,18.80
2018-04-24T02:55:14.146Z,17.67
2018-04-24T02:57:41.576Z,16.87
2018-04-24T03:00:08.999Z,14.73
2018-04-24T03:02:36.436Z,13.37
2018-04-24T03:05:03.838Z,13.33
2018-04-24T03:07:31.284Z,13.10
2018-04-24T03:09:58.702Z,11.70
2018-04-24T03:12:26.128Z,11.60
2018-04-24T03:14:53.540Z,11.37
2018-04-24T03:17:21.111Z,11.37
2018-04-24T03:19:48.520Z,11.00
2018-04-24T03:22:15.949Z,11.80
2018-04-24T03:24:43.439Z,11.67
2018-04-24T03:27:10.877Z,13.43
2018-04-24T03:29:38.283Z,12.10
2018-04-24T03:32:05.724Z,12.57
2018-04-24T03:34:33.135Z,13.40
2018-04-24T03:37:00.899Z,13.93
2018-04-24T03:39:28.331Z,14.53
2018-04-24T03:41:55.739Z,15.77
2018-04-24T03:44:23.171Z,15.30
2018-04-24T03:46:50.591Z,14.80
2018-04-24T03:49:18.040Z,14.27
2018-04-24T03:51:45.449Z,13.87
2018-04-24T03:54:12.928Z,15.30
2018-04-24T03:56:40.341Z,13.50
2018-04-24T03:59:07.775Z,13.73
2018-04-24T04:01:35.195Z,12.93
2018-04-24T04:04:02.632Z,12.33
2018-04-24T04:06:30.349Z,11.93
2018-04-24T04:08:57.758Z,11.47
2018-04-24T04:11:25.175Z,11.13
2018-04-24T04:13:52.617Z,10.90
2018-04-24T04:16:20.422Z,10.50
2018-04-24T04:18:59.496Z,10.10
2018-04-24T04:24:49.757Z,9.43
2018-04-24T04:27:17.169Z,10.37
2018-04-24T04:29:44.944Z,9.03
2018-04-24T04:32:12.362Z,9.27
2018-04-24T04:34:39.777Z,8.60
2018-04-24T04:37:07.216Z,8.37
2018-04-24T04:39:34.623Z,9.17
2018-04-24T04:42:02.056Z,8.33
2018-04-24T04:44:29.467Z,8.03
2018-04-24T04:46:56.897Z,7.63
2018-04-24T04:49:24.320Z,7.57
2018-04-24T04:51:51.732Z,7.43
2018-04-24T04:54:19.158Z,7.40
2018-04-24T04:56:46.561Z,7.80
2018-04-24T04:59:14.001Z,6.43
2018-04-24T05:01:41.408Z,6.30
2018-04-24T05:04:09.120Z,6.73
2018-04-24T05:06:36.515Z,6.77
2018-04-24T05:09:03.928Z,6.93
2018-04-24T05:11:31.352Z,7.87
2018-04-24T05:13:59.096Z,7.40
2018-04-24T05:16:26.504Z,6.20
2018-04-24T05:18:53.907Z,6.20
2018-04-24T05:21:21.337Z,6.40
2018-04-24T05:23:48.756Z,5.67
2018-04-24T05:26:16.161Z,5.90
2018-04-24T05:28:43.578Z,5.93
2018-04-24T05:31:11.257Z,5.87
2018-04-24T05:33:38.679Z,6.07
2018-04-24T05:36:06.087Z,5.57
2018-04-24T05:38:33.504Z,6.30
2018-04-24T05:41:00.910Z,5.67
2018-04-24T05:43:28.424Z,6.03
2018-04-24T05:45:55.827Z,5.83
2018-04-24T05:48:23.251Z,5.80
2018-04-24T05:50:50.661Z,5.47
2018-04-24T05:53:18.101Z,5.20
2018-04-24T05:55:45.495Z,6.07
2018-04-24T05:58:12.934Z,6.07
2018-04-24T06:00:40.717Z,5.60
2018-04-24T06:03:08.159Z,5.30
2018-04-24T06:05:35.556Z,5.60
2018-04-24T06:08:02.985Z,5.63
2018-04-24T06:10:30.706Z,6.10
2018-04-24T06:12:58.132Z,5.07
2018-04-24T06:15:25.547Z,5.20
2018-04-24T06:17:52.966Z,5.50
2018-04-24T06:20:20.692Z,5.37
2018-04-24T06:22:48.108Z,4.73
2018-04-24T06:25:15.516Z,5.30
2018-04-24T06:27:42.935Z,5.60
2018-04-24T06:30:10.349Z,5.43
2018-04-24T06:32:37.805Z,5.57
2018-04-24T06:35:05.223Z,6.03
2018-04-24T06:37:32.629Z,6.23
2018-04-24T06:40:00.292Z,5.93
2018-04-24T06:42:27.692Z,6.47
2018-04-24T06:44:55.092Z,6.70
2018-04-24T06:47:22.517Z,6.43
2018-04-24T06:49:50.210Z,6.10
2018-04-24T06:52:17.650Z,6.30
2018-04-24T06:54:45.082Z,6.47
2018-04-24T06:57:12.590Z,6.47
2018-04-24T06:59:39.995Z,6.60
2018-04-24T07:02:07.426Z,5.70
2018-04-24T07:04:35.552Z,6.60
2018-04-24T07:07:03.076Z,6.70
2018-04-24T07:09:30.487Z,6.43
2018-04-24T07:11:57.927Z,5.80
2018-04-24T07:14:26.355Z,6.57
2018-04-24T07:16:53.866Z,6.00
2018-04-24T07:19:21.699Z,6.90
2018-04-24T07:21:49.099Z,5.83
2018-04-24T07:24:16.971Z,6.53
2018-04-24T07:26:44.382Z,6.67
2018-04-24T07:29:11.780Z,6.37
2018-04-24T07:31:39.793Z,5.80
2018-04-24T07:34:07.202Z,6.93
2018-04-24T07:36:34.629Z,6.03
2018-04-24T07:39:02.047Z,7.17
2018-04-24T07:41:29.977Z,7.70
2018-04-24T07:43:57.397Z,7.27
2018-04-24T07:46:24.817Z,7.07
2018-04-24T07:48:52.448Z,7.03
2018-04-24T07:51:19.867Z,7.83
2018-04-24T07:53:47.280Z,7.63
2018-04-24T07:56:14.724Z,8.50
2018-04-24T07:58:42.151Z,7.93
2018-04-24T08:01:09.592Z,7.57
2018-04-24T08:03:36.991Z,8.03
2018-04-24T08:06:04.447Z,8.27
2018-04-24T08:08:31.880Z,8.13
2018-04-24T08:10:59.310Z,8.23
2018-04-24T08:13:27.235Z,8.27
2018-04-24T08:15:54.645Z,8.50
2018-04-24T08:18:22.052Z,8.10
2018-04-24T08:20:49.483Z,7.83
2018-04-24T08:23:16.941Z,8.77
2018-04-24T08:25:44.380Z,8.07
2018-04-24T08:28:11.796Z,8.30
2018-04-24T08:30:39.246Z,8.30
2018-04-24T08:33:06.681Z,9.00
2018-04-24T08:35:34.134Z,9.67
2018-04-24T08:38:01.553Z,9.10
2018-04-24T08:40:28.963Z,9.53
2018-04-24T08:42:57.648Z,9.70
2018-04-24T08:45:25.069Z,8.07
2018-04-24T08:47:52.593Z,7.83
2018-04-24T08:50:19.956Z,7.87
2018-04-24T08:52:47.366Z,8.30
2018-04-24T08:55:14.816Z,8.10
2018-04-24T08:57:42.283Z,8.33
2018-04-24T09:00:09.687Z,7.40
2018-04-24T09:02:37.101Z,7.07
2018-04-24T09:05:04.845Z,7.30
2018-04-24T09:07:32.252Z,7.87
2018-04-24T09:09:59.659Z,7.73
2018-04-24T09:12:27.150Z,8.50
2018-04-24T09:14:54.595Z,7.83
2018-04-24T09:17:22.018Z,7.13
2018-04-24T09:19:49.560Z,8.37
2018-04-24T09:22:17.027Z,8.47
2018-04-24T09:24:44.436Z,9.20
2018-04-24T09:27:12.012Z,9.83
2018-04-24T09:29:39.433Z,9.07
2018-04-24T09:32:07.006Z,10.50
2018-04-24T09:34:34.503Z,10.10
2018-04-24T09:37:01.984Z,10.77
2018-04-24T09:39:29.731Z,11.43
2018-04-24T09:41:58.146Z,13.23
2018-04-24T09:44:25.580Z,11.10
2018-04-24T09:46:53.012Z,12.90
2018-04-24T09:49:20.463Z,12.67
2018-04-24T09:51:48.219Z,13.33
2018-04-24T09:54:15.653Z,15.30
2018-04-24T09:56:43.279Z,15.83
2018-04-24T09:59:11.555Z,13.87
2018-04-24T10:01:39.886Z,14.17
2018-04-24T10:04:07.340Z,15.57
2018-04-24T10:06:34.760Z,13.13
2018-04-24T10:09:02.303Z,14.73
2018-04-24T10:11:29.704Z,16.13
2018-04-24T10:13:57.451Z,14.57
2018-04-24T10:16:24.881Z,16.17
2018-04-24T10:18:52.301Z,14.23
2018-04-24T10:21:19.722Z,14.50
2018-04-24T10:23:47.580Z,14.57
2018-04-24T10:26:15.035Z,14.17
2018-04-24T10:28:42.452Z,14.90
2018-04-24T10:31:10.420Z,14.03
2018-04-24T10:33:37.845Z,15.67
2018-04-24T10:36:05.275Z,16.27
2018-04-24T10:38:32.708Z,15.83
2018-04-24T10:41:00.141Z,16.20
2018-04-24T10:43:27.552Z,17.70
2018-04-24T10:45:54.983Z,16.20
2018-04-24T10:48:22.892Z,16.63
2018-04-24T10:50:50.325Z,16.53
2018-04-24T10:53:17.728Z,16.50
2018-04-24T10:55:45.259Z,15.40
2018-04-24T10:58:12.680Z,15.70
2018-04-24T11:00:40.571Z,16.43
2018-04-24T11:03:08.024Z,15.10
2018-04-24T11:05:35.436Z,16.20
2018-04-24T11:08:02.879Z,16.43
2018-04-24T11:10:30.281Z,16.70
2018-04-24T11:12:58.969Z,17.80
2018-04-24T11:15:26.398Z,17.03
2018-04-24T11:17:53.832Z,16.57
2018-04-24T11:20:21.432Z,15.57
2018-04-24T11:22:48.843Z,16.40
2018-04-24T11:25:16.357Z,16.63
2018-04-24T11:27:43.811Z,18.40
2018-04-24T11:30:11.312Z,19.27
2018-04-24T11:32:38.997Z,18.33
2018-04-24T11:35:06.428Z,20.00
2018-04-24T11:37:33.845Z,21.57
2018-04-24T11:40:01.306Z,19.17
2018-04-24T11:42:28.756Z,20.77
2018-04-24T11:44:56.184Z,21.43
2018-04-24T11:47:23.936Z,19.90
2018-04-24T11:49:51.368Z,19.93
2018-04-24T11:52:18.857Z,20.97
2018-04-24T11:54:46.342Z,19.33
2018-04-24T11:57:14.684Z,20.33
2018-04-24T11:59:42.115Z,20.20
2018-04-24T12:02:09.748Z,19.03
2018-04-24T12:04:37.165Z,19.33
2018-04-24T12:07:05.018Z,20.07
2018-04-24T12:09:32.441Z,19.57
2018-04-24T12:11:59.867Z,18.97
2018-04-24T12:14:27.456Z,19.20
2018-04-24T12:16:54.884Z,19.93
2018-04-24T12:19:22.331Z,19.30
2018-04-24T12:21:49.740Z,19.33
2018-04-24T12:24:18.309Z,21.97
2018-04-24T12:26:45.716Z,19.60
2018-04-24T12:29:13.135Z,18.40
2018-04-24T12:31:40.576Z,19.27
2018-04-24T12:34:08.001Z,20.07
2018-04-24T12:36:35.487Z,22.63
2018-04-24T12:39:02.928Z,21.03
2018-04-24T12:41:30.344Z,22.30
2018-04-24T12:43:58.094Z,22.07
2018-04-24T12:46:25.516Z,21.80
2018-04-24T12:48:52.965Z,20.13
2018-04-24T12:51:20.422Z,20.77
2018-04-24T12:53:47.862Z,19.50
2018-04-24T12:56:15.331Z,18.70
2018-04-24T12:58:42.751Z,17.97
2018-04-24T13:01:10.567Z,17.63
2018-04-24T13:03:37.993Z,18.27
2018-04-24T13:06:05.481Z,16.80
2018-04-24T13:08:32.922Z,16.50
2018-04-24T13:11:00.375Z,16.43
2018-04-24T13:13:28.223Z,20.57
2018-04-24T13:15:55.628Z,23.87
2018-04-24T13:18:23.369Z,26.40
2018-04-24T13:20:50.785Z,24.67
2018-04-24T13:23:18.196Z,24.50
2018-04-24T13:25:45.704Z,27.10
2018-04-24T13:28:13.057Z,27.20
2018-04-24T13:30:40.465Z,31.50
2018-04-24T13:33:08.303Z,29.33
2018-04-24T13:35:35.712Z,29.70
2018-04-24T13:38:03.133Z,29.60
2018-04-24T13:40:30.634Z,29.50
2018-04-24T13:42:58.088Z,31.70
2018-04-24T13:45:25.512Z,32.87
2018-04-24T13:47:52.928Z,31.10
2018-04-24T13:50:20.360Z,29.93
2018-04-24T13:52:47.772Z,28.83
2018-04-24T13:55:15.229Z,29.67
2018-04-24T13:57:42.645Z,29.00
2018-04-24T14:00:10.079Z,28.43
2018-04-24T14:02:37.492Z,28.57
2018-04-24T14:05:04.923Z,27.73
2018-04-24T14:07:32.335Z,26.20
2018-04-24T14:10:00.157Z,25.57
2018-04-24T14:12:27.568Z,27.00
2018-04-24T14:14:55.000Z,26.53
2018-04-24T14:17:22.437Z,27.27
2018-04-24T14:19:49.839Z,29.07
2018-04-24T14:22:17.297Z,26.23
2018-04-24T14:24:44.700Z,26.60
2018-04-24T14:27:12.138Z,25.43
2018-04-24T14:29:39.552Z,24.50
2018-04-24T14:32:07.663Z,26.50
2018-04-24T14:34:35.072Z,24.43
2018-04-24T14:37:02.505Z,25.70
2018-04-24T14:39:29.948Z,23.70
2018-04-24T14:41:57.392Z,24.63
2018-04-24T14:44:24.830Z,27.80
2018-04-24T14:46:52.239Z,27.13
2018-04-24T14:49:19.689Z,30.00
2018-04-24T14:51:47.214Z,28.10
2018-04-24T14:54:14.562Z,27.83
2018-04-24T14:56:41.980Z,27.40
2018-04-24T14:59:09.415Z,27.47
2018-04-24T15:01:36.844Z,29.53
2018-04-24T15:04:04.311Z,32.97
2018-04-24T15:06:46.635Z,29.13
2018-04-24T15:09:14.071Z,28.53
2018-04-24T15:11:41.484Z,30.77
2018-04-24T15:14:08.958Z,31.63
2018-04-24T15:16:36.366Z,30.53
2018-04-24T15:19:04.039Z,31.00
2018-04-24T15:21:31.472Z,32.37
2018-04-24T15:23:58.898Z,31.03
2018-04-24T15:26:26.600Z,28.73
2018-04-24T15:28:54.009Z,31.53
2018-04-24T15:31:21.430Z,28.40
2018-04-24T15:33:48.868Z,30.33
2018-04-24T15:36:16.328Z,29.30
2018-04-24T15:38:43.739Z,29.40
2018-04-24T15:41:11.185Z,28.33
2018-04-24T15:43:38.596Z,32.37
2018-04-24T15:46:06.050Z,31.33
2018-04-24T15:48:33.464Z,30.03
2018-04-24T15:51:01.247Z,30.37
2018-04-24T15:53:28.655Z,28.67
2018-04-24T15:55:56.084Z,28.63
2018-04-24T15:58:23.492Z,27.73
2018-04-24T16:00:50.904Z,29.80
2018-04-24T16:03:18.700Z,29.40
2018-04-24T16:05:46.157Z,29.10
2018-04-24T16:08:13.572Z,31.07
2018-04-24T16:10:41.007Z,27.73
2018-04-24T16:13:08.431Z,28.00
2018-04-24T16:15:35.851Z,28.63
2018-04-24T16:18:03.624Z,28.27
2018-04-24T16:20:31.038Z,26.70
2018-04-24T16:22:58.455Z,25.10
2018-04-24T16:25:25.883Z,27.67
2018-04-24T16:27:53.299Z,26.50
2018-04-24T16:30:20.768Z,24.30
2018-04-24T16:32:48.176Z,23.20
2018-04-24T16:35:15.614Z,24.47
2018-04-24T16:37:43.036Z,22.93
2018-04-24T16:40:10.443Z,21.97
2018-04-24T16:42:37.864Z,22.13
2018-04-24T16:45:05.278Z,20.93
2018-04-24T16:47:32.732Z,20.63
2018-04-24T16:50:00.173Z,21.03
2018-04-24T16:52:27.584Z,23.33
2018-04-24T16:54:55.020Z,21.30
2018-04-24T16:57:22.428Z,21.40
2018-04-24T16:59:49.884Z,21.13
2018-04-24T17:02:17.304Z,20.77
2018-04-24T17:04:45.036Z,20.93
2018-04-24T17:07:12.446Z,20.10
2018-04-24T17:09:39.860Z,20.93
2018-04-24T17:12:07.304Z,19.77
2018-04-24T17:14:34.712Z,18.00
2018-04-24T17:17:02.147Z,19.47
2018-04-24T17:19:29.585Z,17.10
2018-04-24T17:21:57.276Z,17.53
2018-04-24T17:24:24.698Z,16.80
2018-04-24T17:26:52.124Z,15.83
2018-04-24T17:29:19.621Z,16.43
2018-04-24T17:31:47.037Z,15.73
2018-04-24T17:34:14.472Z,15.97
2018-04-24T17:36:41.903Z,13.57
2018-04-24T17:39:09.307Z,15.20
2018-04-24T17:41:36.791Z,14.17
2018-04-24T17:44:04.211Z,14.17
2018-04-24T17:46:31.653Z,15.77
2018-04-24T17:48:59.061Z,13.73
2018-04-24T17:51:26.500Z,13.83
2018-04-24T17:53:53.908Z,14.77
2018-04-24T17:56:22.043Z,15.27
2018-04-24T17:58:49.475Z,14.50
2018-04-24T18:01:16.884Z,13.73
2018-04-24T18:03:44.316Z,13.13
2018-04-24T18:06:11.720Z,14.50
2018-04-24T18:08:39.143Z,14.10
2018-04-24T18:11:06.630Z,14.60
2018-04-24T18:13:34.057Z,15.40
2018-04-24T18:16:01.468Z,15.07
2018-04-24T18:18:28.898Z,15.23
2018-04-24T18:20:56.317Z,16.03
2018-04-24T18:23:24.181Z,18.30
2018-04-24T18:25:51.628Z,18.87
2018-04-24T18:28:19.158Z,23.33
2018-04-24T18:30:46.588Z,19.17
2018-04-24T18:33:14.008Z,17.57
2018-04-24T18:38:32.779Z,18.07
2018-04-24T18:41:00.191Z,16.93
2018-04-24T18:43:27.619Z,17.83
2018-04-24T18:45:55.047Z,17.97
2018-04-24T18:48:22.469Z,19.70
2018-04-24T18:50:49.970Z,20.37
2018-04-24T18:53:17.387Z,17.47
2018-04-24T18:55:44.813Z,18.90
2018-04-24T18:58:12.239Z,17.93
2018-04-24T19:00:39.647Z,22.90
2018-04-24T19:03:07.075Z,18.83
2018-04-24T19:05:34.507Z,20.63
2018-04-24T19:08:02.018Z,21.13
2018-04-24T19:10:29.992Z,22.60
2018-04-24T19:12:57.649Z,27.37
2018-04-24T19:15:25.080Z,19.97
2018-04-24T19:17:52.523Z,22.50
2018-04-24T19:20:19.960Z,32.63
2018-04-24T19:22:47.484Z,27.43
2018-04-24T19:25:20.463Z,20.87
2018-04-24T19:27:47.910Z,21.57
2018-04-24T19:30:15.394Z,22.47
2018-04-24T19:32:42.835Z,22.27
2018-04-24T19:35:10.275Z,24.73
2018-04-24T19:37:37.995Z,26.70
2018-04-24T19:40:11.175Z,26.20
2018-04-24T19:42:38.647Z,24.57
2018-04-24T19:45:06.316Z,28.40
2018-04-24T19:47:33.723Z,28.60
2018-04-24T19:50:06.694Z,24.47
2018-04-24T19:52:34.123Z,25.97
2018-04-24T19:55:07.463Z,26.37
2018-04-24T19:57:34.880Z,29.03
2018-04-24T20:00:02.314Z,27.07
2018-04-24T20:02:30.078Z,29.20
2018-04-24T20:04:57.491Z,31.93
2018-04-24T20:07:24.913Z,28.63
2018-04-24T20:09:52.345Z,27.30
2018-04-24T20:12:19.752Z,32.17
2018-04-24T20:14:47.196Z,37.27
2018-04-24T20:17:14.604Z,38.00
2018-04-24T20:19:42.030Z,37.23
2018-04-24T20:22:09.465Z,38.40
2018-04-24T20:24:36.951Z,39.00
2018-04-24T20:27:04.364Z,41.57
2018-04-24T20:29:31.791Z,40.63
2018-04-24T20:31:59.217Z,38.07
2018-04-24T20:34:26.636Z,44.13
2018-04-24T20:36:54.060Z,42.83
2018-04-24T20:39:21.483Z,41.00
2018-04-24T20:41:48.919Z,45.50
2018-04-24T20:44:16.328Z,45.27
2018-04-24T20:46:44.703Z,44.03
2018-04-24T20:49:12.107Z,44.57
2018-04-24T20:51:39.681Z,47.93
2018-04-24T20:54:07.130Z,46.80
2018-04-24T20:56:34.666Z,45.27
2018-04-24T20:59:02.098Z,45.73
2018-04-24T21:01:29.508Z,44.67
2018-04-24T21:03:56.923Z,45.07
2018-04-24T21:06:24.596Z,44.60
2018-04-24T21:08:52.050Z,44.97
2018-04-24T21:11:19.450Z,39.27
2018-04-24T21:13:46.896Z,39.37
2018-04-24T21:16:14.304Z,36.63
2018-04-24T21:18:41.720Z,39.10
2018-04-24T21:21:09.140Z,41.97
2018-04-24T21:23:36.560Z,37.77
2018-04-24T21:26:04.029Z,39.33
2018-04-24T21:28:31.398Z,38.03
2018-04-24T21:30:58.809Z,37.93
2018-04-24T21:33:26.605Z,37.20
2018-04-24T21:35:53.973Z,38.30
2018-04-24T21:38:21.388Z,31.87
2018-04-24T21:40:48.956Z,35.03
2018-04-24T21:43:16.364Z,36.73
2018-04-24T21:45:43.772Z,33.10
2018-04-24T21:48:11.188Z,36.20
2018-04-24T21:50:38.602Z,36.00
2018-04-24T21:53:06.044Z,33.47
2018-04-24T21:55:33.456Z,33.00
2018-04-24T21:58:00.871Z,37.03
2018-04-24T22:00:28.295Z,34.60
2018-04-24T22:02:55.709Z,35.50
2018-04-24T22:05:23.479Z,36.67
2018-04-24T22:07:50.893Z,35.27
2018-04-24T22:10:18.297Z,35.17
2018-04-24T22:12:45.721Z,35.67
2018-04-24T22:15:13.135Z,33.57
2018-04-24T22:17:40.560Z,33.97
2018-04-24T22:20:07.996Z,35.53
2018-04-24T22:22:35.402Z,36.17
2018-04-24T22:25:02.800Z,35.60
2018-04-24T22:27:30.490Z,34.80
2018-04-24T22:29:57.901Z,34.93
2018-04-24T22:32:25.341Z,33.50
2018-04-24T22:34:52.751Z,35.70
2018-04-24T22:37:20.161Z,36.63
2018-04-24T22:39:47.594Z,37.43
2018-04-24T22:42:15.013Z,36.93
2018-04-24T22:44:42.446Z,36.57
2018-04-24T22:47:09.864Z,35.17
2018-04-24T22:49:37.304Z,37.70
2018-04-24T22:52:04.724Z,37.27
2018-04-24T22:54:32.128Z,36.73
2018-04-24T22:56:59.557Z,36.07
2018-04-24T22:59:27.319Z,36.03
2018-04-24T23:01:54.719Z,35.97
2018-04-24T23:04:22.161Z,36.80
2018-04-24T23:06:49.908Z,36.50
2018-04-24T23:09:17.320Z,34.87
2018-04-24T23:11:56.940Z,34.80
2018-04-24T23:14:35.916Z,34.77
2018-04-24T23:17:15.223Z,35.97
2018-04-24T23:19:54.523Z,34.23
2018-04-24T23:22:31.407Z,36.13
2018-04-24T23:24:58.848Z,36.13
2018-04-24T23:27:26.270Z,34.63
2018-04-24T23:29:53.684Z,35.43
2018-04-24T23:32:21.098Z,37.40
2018-04-24T23:34:48.545Z,33.60
2018-04-24T23:37:15.951Z,36.00
2018-04-24T23:39:43.372Z,33.47
2018-04-24T23:42:10.784Z,33.67
2018-04-24T23:44:38.212Z,34.93
2018-04-24T23:47:05.640Z,33.23
2018-04-24T23:49:33.071Z,35.63
2018-04-24T23:52:00.476Z,33.20
2018-04-24T23:54:27.899Z,34.07
2018-04-24T23:56:55.303Z,33.77
2018-04-24T23:59:22.723Z,33.20
